sensor_id;sensor_type;location;lat;lon;timestamp;P1;durP1;ratioP1;P2;durP2;ratioP2
46755;SDS011;32506;52.826;-1.192;2023-07-30T00:00:33;8.55;;;1.70;;
46755;SDS011;32506;52.826;-1.192;2023-07-30T00:02:58;8.45;;;1.95;;
46755;SDS011;32506;52.826;-1.192;2023-07-30T00:05:23;9.43;;;2.00;;
46755;SDS011;32506;52.826;-1.192;2023-07-30T00:07:49;8.18;;;1.77;;
46755;SDS011;32506;52.826;-1.192;2023-07-30T00:10:14;7.78;;;1.70;;
46755;SDS011;32506;52.826;-1.192;2023-07-30T00:12:40;13.40;;;1.85;;
46755;SDS011;32506;52.826;-1.192;2023-07-30T00:15:06;8.75;;;1.40;;
46755;SDS011;32506;52.826;-1.192;2023-07-30T00:17:32;13.40;;;2.30;;
46755;SDS011;32506;52.826;-1.192;2023-07-30T00:19:57;11.48;;;2.08;;
46755;SDS011;32506;52.826;-1.192;2023-07-30T00:22:23;10.90;;;2.28;;
46755;SDS011;32506;52.826;-1.192;2023-07-30T00:24:48;13.05;;;1.75;;
46755;SDS011;32506;52.826;-1.192;2023-07-30T00:27:14;7.80;;;1.73;;
46755;SDS011;32506;52.826;-1.192;2023-07-30T00:29:39;8.15;;;1.63;;
46755;SDS011;32506;52.826;-1.192;2023-07-30T00:32:05;7.35;;;1.83;;
46755;SDS011;32506;52.826;-1.192;2023-07-30T00:34:30;8.57;;;1.80;;
46755;SDS011;32506;52.826;-1.192;2023-07-30T00:36:56;12.05;;;1.70;;
46755;SDS011;32506;52.826;-1.192;2023-07-30T00:39:21;7.85;;;1.73;;
46755;SDS011;32506;52.826;-1.192;2023-07-30T00:41:47;10.13;;;1.80;;
46755;SDS011;32506;52.826;-1.192;2023-07-30T00:44:12;9.10;;;2.05;;
46755;SDS011;32506;52.826;-1.192;2023-07-30T00:46:38;9.43;;;1.90;;
46755;SDS011;32506;52.826;-1.192;2023-07-30T00:49:03;13.68;;;3.05;;
46755;SDS011;32506;52.826;-1.192;2023-07-30T00:51:29;8.95;;;1.98;;
46755;SDS011;32506;52.826;-1.192;2023-07-30T00:53:56;8.55;;;2.63;;
46755;SDS011;32506;52.826;-1.192;2023-07-30T00:56:22;8.20;;;1.30;;
46755;SDS011;32506;52.826;-1.192;2023-07-30T00:58:47;12.55;;;1.92;;
46755;SDS011;32506;52.826;-1.192;2023-07-30T01:01:14;9.63;;;1.70;;
46755;SDS011;32506;52.826;-1.192;2023-07-30T01:03:40;9.35;;;1.60;;
46755;SDS011;32506;52.826;-1.192;2023-07-30T01:06:06;11.02;;;2.05;;
46755;SDS011;32506;52.826;-1.192;2023-07-30T01:08:32;8.77;;;1.50;;
46755;SDS011;32506;52.826;-1.192;2023-07-30T01:10:58;7.90;;;1.60;;
46755;SDS011;32506;52.826;-1.192;2023-07-30T01:13:23;10.43;;;1.85;;
46755;SDS011;32506;52.826;-1.192;2023-07-30T01:15:49;9.57;;;1.90;;
46755;SDS011;32506;52.826;-1.192;2023-07-30T01:18:15;9.07;;;1.63;;
46755;SDS011;32506;52.826;-1.192;2023-07-30T01:20:41;10.38;;;1.98;;
46755;SDS011;32506;52.826;-1.192;2023-07-30T01:23:06;12.20;;;1.88;;
46755;SDS011;32506;52.826;-1.192;2023-07-30T01:25:33;16.75;;;1.75;;
46755;SDS011;32506;52.826;-1.192;2023-07-30T01:28:01;7.65;;;1.50;;
46755;SDS011;32506;52.826;-1.192;2023-07-30T01:30:39;6.85;;;1.60;;
46755;SDS011;32506;52.826;-1.192;2023-07-30T01:33:07;6.18;;;1.20;;
46755;SDS011;32506;52.826;-1.192;2023-07-30T01:35:35;6.40;;;1.63;;
46755;SDS011;32506;52.826;-1.192;2023-07-30T01:38:02;7.55;;;2.30;;
46755;SDS011;32506;52.826;-1.192;2023-07-30T01:40:31;7.38;;;1.42;;
46755;SDS011;32506;52.826;-1.192;2023-07-30T01:42:57;9.02;;;2.10;;
46755;SDS011;32506;52.826;-1.192;2023-07-30T01:45:22;7.82;;;1.75;;
46755;SDS011;32506;52.826;-1.192;2023-07-30T01:47:48;7.30;;;2.17;;
46755;SDS011;32506;52.826;-1.192;2023-07-30T01:50:13;11.13;;;1.83;;
46755;SDS011;32506;52.826;-1.192;2023-07-30T01:52:39;8.65;;;1.95;;
46755;SDS011;32506;52.826;-1.192;2023-07-30T01:55:04;7.88;;;1.55;;
46755;SDS011;32506;52.826;-1.192;2023-07-30T01:57:30;9.60;;;1.70;;
46755;SDS011;32506;52.826;-1.192;2023-07-30T01:59:56;7.30;;;1.30;;
46755;SDS011;32506;52.826;-1.192;2023-07-30T02:02:21;7.40;;;1.33;;
46755;SDS011;32506;52.826;-1.192;2023-07-30T02:04:47;13.02;;;2.58;;
46755;SDS011;32506;52.826;-1.192;2023-07-30T02:07:12;6.72;;;1.40;;
46755;SDS011;32506;52.826;-1.192;2023-07-30T02:09:38;11.70;;;1.95;;
46755;SDS011;32506;52.826;-1.192;2023-07-30T02:12:03;5.68;;;1.30;;
46755;SDS011;32506;52.826;-1.192;2023-07-30T02:14:29;6.43;;;1.30;;
46755;SDS011;32506;52.826;-1.192;2023-07-30T02:16:54;9.43;;;1.70;;
46755;SDS011;32506;52.826;-1.192;2023-07-30T02:19:20;6.20;;;1.65;;
46755;SDS011;32506;52.826;-1.192;2023-07-30T02:21:45;9.68;;;1.77;;
46755;SDS011;32506;52.826;-1.192;2023-07-30T02:24:11;7.32;;;1.40;;
46755;SDS011;32506;52.826;-1.192;2023-07-30T02:26:39;10.05;;;1.60;;
46755;SDS011;32506;52.826;-1.192;2023-07-30T02:29:05;7.68;;;1.63;;
46755;SDS011;32506;52.826;-1.192;2023-07-30T02:31:31;7.05;;;1.40;;
46755;SDS011;32506;52.826;-1.192;2023-07-30T02:33:57;10.80;;;1.77;;
46755;SDS011;32506;52.826;-1.192;2023-07-30T02:36:22;7.55;;;1.48;;
46755;SDS011;32506;52.826;-1.192;2023-07-30T02:38:48;5.95;;;1.30;;
46755;SDS011;32506;52.826;-1.192;2023-07-30T02:41:13;8.93;;;1.60;;
46755;SDS011;32506;52.826;-1.192;2023-07-30T02:43:39;5.75;;;1.40;;
46755;SDS011;32506;52.826;-1.192;2023-07-30T02:46:04;5.78;;;1.33;;
46755;SDS011;32506;52.826;-1.192;2023-07-30T02:48:31;9.80;;;1.75;;
46755;SDS011;32506;52.826;-1.192;2023-07-30T02:50:57;7.30;;;1.40;;
46755;SDS011;32506;52.826;-1.192;2023-07-30T02:53:22;4.68;;;1.30;;
46755;SDS011;32506;52.826;-1.192;2023-07-30T02:55:48;8.10;;;2.13;;
46755;SDS011;32506;52.826;-1.192;2023-07-30T02:58:13;6.25;;;1.17;;
46755;SDS011;32506;52.826;-1.192;2023-07-30T03:00:38;11.40;;;1.83;;
46755;SDS011;32506;52.826;-1.192;2023-07-30T03:03:04;6.95;;;1.70;;
46755;SDS011;32506;52.826;-1.192;2023-07-30T03:05:29;11.25;;;1.98;;
46755;SDS011;32506;52.826;-1.192;2023-07-30T03:07:55;9.23;;;2.05;;
46755;SDS011;32506;52.826;-1.192;2023-07-30T03:10:21;7.65;;;1.50;;
46755;SDS011;32506;52.826;-1.192;2023-07-30T03:12:46;6.15;;;1.20;;
46755;SDS011;32506;52.826;-1.192;2023-07-30T03:15:12;8.23;;;1.35;;
46755;SDS011;32506;52.826;-1.192;2023-07-30T03:17:37;7.95;;;1.52;;
46755;SDS011;32506;52.826;-1.192;2023-07-30T03:20:03;6.75;;;1.85;;
46755;SDS011;32506;52.826;-1.192;2023-07-30T03:22:29;6.72;;;1.20;;
46755;SDS011;32506;52.826;-1.192;2023-07-30T03:24:55;6.80;;;1.45;;
46755;SDS011;32506;52.826;-1.192;2023-07-30T03:27:20;10.23;;;2.35;;
46755;SDS011;32506;52.826;-1.192;2023-07-30T03:29:45;8.15;;;1.77;;
46755;SDS011;32506;52.826;-1.192;2023-07-30T03:32:11;5.43;;;1.20;;
46755;SDS011;32506;52.826;-1.192;2023-07-30T03:34:36;9.35;;;2.25;;
46755;SDS011;32506;52.826;-1.192;2023-07-30T03:37:02;5.60;;;1.60;;
46755;SDS011;32506;52.826;-1.192;2023-07-30T03:39:27;8.38;;;1.33;;
46755;SDS011;32506;52.826;-1.192;2023-07-30T03:41:53;7.97;;;1.23;;
46755;SDS011;32506;52.826;-1.192;2023-07-30T03:44:18;5.38;;;1.02;;
46755;SDS011;32506;52.826;-1.192;2023-07-30T03:46:43;6.95;;;1.23;;
46755;SDS011;32506;52.826;-1.192;2023-07-30T03:49:09;7.78;;;1.38;;
46755;SDS011;32506;52.826;-1.192;2023-07-30T03:51:35;9.82;;;1.23;;
46755;SDS011;32506;52.826;-1.192;2023-07-30T03:54:00;6.72;;;1.45;;
46755;SDS011;32506;52.826;-1.192;2023-07-30T03:56:26;4.63;;;0.93;;
46755;SDS011;32506;52.826;-1.192;2023-07-30T03:58:51;5.00;;;1.40;;
46755;SDS011;32506;52.826;-1.192;2023-07-30T04:01:17;5.35;;;1.35;;
46755;SDS011;32506;52.826;-1.192;2023-07-30T04:03:42;8.23;;;1.10;;
46755;SDS011;32506;52.826;-1.192;2023-07-30T04:06:08;7.65;;;1.15;;
46755;SDS011;32506;52.826;-1.192;2023-07-30T04:08:33;7.43;;;1.20;;
46755;SDS011;32506;52.826;-1.192;2023-07-30T04:10:59;6.38;;;1.20;;
46755;SDS011;32506;52.826;-1.192;2023-07-30T04:13:24;6.13;;;1.00;;
46755;SDS011;32506;52.826;-1.192;2023-07-30T04:15:49;8.25;;;2.05;;
46755;SDS011;32506;52.826;-1.192;2023-07-30T04:18:15;7.47;;;0.98;;
46755;SDS011;32506;52.826;-1.192;2023-07-30T04:20:40;6.90;;;1.30;;
46755;SDS011;32506;52.826;-1.192;2023-07-30T04:23:06;7.97;;;1.25;;
46755;SDS011;32506;52.826;-1.192;2023-07-30T04:25:31;6.20;;;0.98;;
46755;SDS011;32506;52.826;-1.192;2023-07-30T04:27:56;5.22;;;0.90;;
46755;SDS011;32506;52.826;-1.192;2023-07-30T04:30:22;4.43;;;1.40;;
46755;SDS011;32506;52.826;-1.192;2023-07-30T04:32:47;5.93;;;1.13;;
46755;SDS011;32506;52.826;-1.192;2023-07-30T04:35:13;10.10;;;1.83;;
46755;SDS011;32506;52.826;-1.192;2023-07-30T04:37:38;7.05;;;1.20;;
46755;SDS011;32506;52.826;-1.192;2023-07-30T04:40:04;6.05;;;1.50;;
46755;SDS011;32506;52.826;-1.192;2023-07-30T04:42:30;6.22;;;1.42;;
46755;SDS011;32506;52.826;-1.192;2023-07-30T04:44:55;8.25;;;1.42;;
46755;SDS011;32506;52.826;-1.192;2023-07-30T04:47:20;5.70;;;1.08;;
46755;SDS011;32506;52.826;-1.192;2023-07-30T04:49:46;8.88;;;1.17;;
46755;SDS011;32506;52.826;-1.192;2023-07-30T04:52:11;4.47;;;1.30;;
46755;SDS011;32506;52.826;-1.192;2023-07-30T04:54:37;8.05;;;1.88;;
46755;SDS011;32506;52.826;-1.192;2023-07-30T04:57:02;6.13;;;1.20;;
46755;SDS011;32506;52.826;-1.192;2023-07-30T04:59:28;7.38;;;1.38;;
46755;SDS011;32506;52.826;-1.192;2023-07-30T05:01:54;7.55;;;1.10;;
46755;SDS011;32506;52.826;-1.192;2023-07-30T05:04:19;7.00;;;0.93;;
46755;SDS011;32506;52.826;-1.192;2023-07-30T05:06:44;6.85;;;1.50;;
46755;SDS011;32506;52.826;-1.192;2023-07-30T05:09:10;6.85;;;1.30;;
46755;SDS011;32506;52.826;-1.192;2023-07-30T05:11:36;4.80;;;0.98;;
46755;SDS011;32506;52.826;-1.192;2023-07-30T05:14:03;4.95;;;0.88;;
46755;SDS011;32506;52.826;-1.192;2023-07-30T05:16:28;9.48;;;1.35;;
46755;SDS011;32506;52.826;-1.192;2023-07-30T05:18:54;5.30;;;1.17;;
46755;SDS011;32506;52.826;-1.192;2023-07-30T05:21:20;7.50;;;1.45;;
46755;SDS011;32506;52.826;-1.192;2023-07-30T05:23:45;7.32;;;1.30;;
46755;SDS011;32506;52.826;-1.192;2023-07-30T05:26:10;5.72;;;1.30;;
46755;SDS011;32506;52.826;-1.192;2023-07-30T05:28:36;3.92;;;0.90;;
46755;SDS011;32506;52.826;-1.192;2023-07-30T05:31:01;7.80;;;1.30;;
46755;SDS011;32506;52.826;-1.192;2023-07-30T05:33:27;6.45;;;1.27;;
46755;SDS011;32506;52.826;-1.192;2023-07-30T05:35:52;7.28;;;1.27;;
46755;SDS011;32506;52.826;-1.192;2023-07-30T05:38:18;4.82;;;1.00;;
46755;SDS011;32506;52.826;-1.192;2023-07-30T05:40:43;4.20;;;0.98;;
46755;SDS011;32506;52.826;-1.192;2023-07-30T05:43:08;7.78;;;1.30;;
46755;SDS011;32506;52.826;-1.192;2023-07-30T05:45:34;8.85;;;1.55;;
46755;SDS011;32506;52.826;-1.192;2023-07-30T05:48:00;6.20;;;1.45;;
46755;SDS011;32506;52.826;-1.192;2023-07-30T05:50:25;6.72;;;1.58;;
46755;SDS011;32506;52.826;-1.192;2023-07-30T05:52:51;3.38;;;0.90;;
46755;SDS011;32506;52.826;-1.192;2023-07-30T05:55:16;8.90;;;1.30;;
46755;SDS011;32506;52.826;-1.192;2023-07-30T05:57:42;4.38;;;1.52;;
46755;SDS011;32506;52.826;-1.192;2023-07-30T06:00:07;6.47;;;1.00;;
46755;SDS011;32506;52.826;-1.192;2023-07-30T06:02:33;6.78;;;0.88;;
46755;SDS011;32506;52.826;-1.192;2023-07-30T06:04:58;6.97;;;1.00;;
46755;SDS011;32506;52.826;-1.192;2023-07-30T06:07:24;7.57;;;1.38;;
46755;SDS011;32506;52.826;-1.192;2023-07-30T06:09:49;7.20;;;1.25;;
46755;SDS011;32506;52.826;-1.192;2023-07-30T06:12:15;4.97;;;0.77;;
46755;SDS011;32506;52.826;-1.192;2023-07-30T06:14:40;5.00;;;1.08;;
46755;SDS011;32506;52.826;-1.192;2023-07-30T06:17:05;5.70;;;1.02;;
46755;SDS011;32506;52.826;-1.192;2023-07-30T06:19:31;6.82;;;1.27;;
46755;SDS011;32506;52.826;-1.192;2023-07-30T06:21:57;5.25;;;1.00;;
46755;SDS011;32506;52.826;-1.192;2023-07-30T06:24:22;4.25;;;0.85;;
46755;SDS011;32506;52.826;-1.192;2023-07-30T06:26:48;3.53;;;1.10;;
46755;SDS011;32506;52.826;-1.192;2023-07-30T06:29:13;4.18;;;1.20;;
46755;SDS011;32506;52.826;-1.192;2023-07-30T06:31:38;5.57;;;1.00;;
46755;SDS011;32506;52.826;-1.192;2023-07-30T06:34:04;6.55;;;2.05;;
46755;SDS011;32506;52.826;-1.192;2023-07-30T06:36:29;5.97;;;1.30;;
46755;SDS011;32506;52.826;-1.192;2023-07-30T06:38:55;6.05;;;1.00;;
46755;SDS011;32506;52.826;-1.192;2023-07-30T06:41:20;7.18;;;1.10;;
46755;SDS011;32506;52.826;-1.192;2023-07-30T06:43:46;5.43;;;1.40;;
46755;SDS011;32506;52.826;-1.192;2023-07-30T06:46:12;8.50;;;1.02;;
46755;SDS011;32506;52.826;-1.192;2023-07-30T06:48:37;5.65;;;1.02;;
46755;SDS011;32506;52.826;-1.192;2023-07-30T06:51:05;6.18;;;1.08;;
46755;SDS011;32506;52.826;-1.192;2023-07-30T06:53:31;7.45;;;1.25;;
46755;SDS011;32506;52.826;-1.192;2023-07-30T06:55:57;2.72;;;0.75;;
46755;SDS011;32506;52.826;-1.192;2023-07-30T06:58:22;5.80;;;1.42;;
46755;SDS011;32506;52.826;-1.192;2023-07-30T07:00:47;7.03;;;1.67;;
46755;SDS011;32506;52.826;-1.192;2023-07-30T07:03:13;6.15;;;1.13;;
46755;SDS011;32506;52.826;-1.192;2023-07-30T07:05:38;7.82;;;1.15;;
46755;SDS011;32506;52.826;-1.192;2023-07-30T07:08:04;6.20;;;1.33;;
46755;SDS011;32506;52.826;-1.192;2023-07-30T07:10:29;5.63;;;1.30;;
46755;SDS011;32506;52.826;-1.192;2023-07-30T07:12:55;5.63;;;1.10;;
46755;SDS011;32506;52.826;-1.192;2023-07-30T07:15:20;5.15;;;1.10;;
46755;SDS011;32506;52.826;-1.192;2023-07-30T07:17:46;6.82;;;0.90;;
46755;SDS011;32506;52.826;-1.192;2023-07-30T07:20:11;5.05;;;1.02;;
46755;SDS011;32506;52.826;-1.192;2023-07-30T07:22:36;5.90;;;0.75;;
46755;SDS011;32506;52.826;-1.192;2023-07-30T07:25:02;6.28;;;1.00;;
46755;SDS011;32506;52.826;-1.192;2023-07-30T07:27:28;5.53;;;1.48;;
46755;SDS011;32506;52.826;-1.192;2023-07-30T07:29:53;7.90;;;1.08;;
46755;SDS011;32506;52.826;-1.192;2023-07-30T07:32:19;6.82;;;1.50;;
46755;SDS011;32506;52.826;-1.192;2023-07-30T07:34:47;2.72;;;0.75;;
46755;SDS011;32506;52.826;-1.192;2023-07-30T07:37:14;3.25;;;0.73;;
46755;SDS011;32506;52.826;-1.192;2023-07-30T07:39:41;6.20;;;1.23;;
46755;SDS011;32506;52.826;-1.192;2023-07-30T07:42:07;3.30;;;0.52;;
46755;SDS011;32506;52.826;-1.192;2023-07-30T07:44:33;5.60;;;0.80;;
46755;SDS011;32506;52.826;-1.192;2023-07-30T07:46:58;3.28;;;0.57;;
46755;SDS011;32506;52.826;-1.192;2023-07-30T07:49:23;6.45;;;1.35;;
46755;SDS011;32506;52.826;-1.192;2023-07-30T07:51:52;4.82;;;0.73;;
46755;SDS011;32506;52.826;-1.192;2023-07-30T07:54:17;3.75;;;0.85;;
46755;SDS011;32506;52.826;-1.192;2023-07-30T07:56:43;4.22;;;0.85;;
46755;SDS011;32506;52.826;-1.192;2023-07-30T07:59:08;5.13;;;0.85;;
46755;SDS011;32506;52.826;-1.192;2023-07-30T08:01:33;5.82;;;0.80;;
46755;SDS011;32506;52.826;-1.192;2023-07-30T08:03:59;3.15;;;0.60;;
46755;SDS011;32506;52.826;-1.192;2023-07-30T08:06:24;4.82;;;0.80;;
46755;SDS011;32506;52.826;-1.192;2023-07-30T08:08:50;6.80;;;1.00;;
46755;SDS011;32506;52.826;-1.192;2023-07-30T08:11:15;5.47;;;0.75;;
46755;SDS011;32506;52.826;-1.192;2023-07-30T08:13:41;5.78;;;1.63;;
46755;SDS011;32506;52.826;-1.192;2023-07-30T08:16:06;4.32;;;0.80;;
46755;SDS011;32506;52.826;-1.192;2023-07-30T08:18:32;6.35;;;0.60;;
46755;SDS011;32506;52.826;-1.192;2023-07-30T08:20:58;5.53;;;0.65;;
46755;SDS011;32506;52.826;-1.192;2023-07-30T08:23:24;5.90;;;0.90;;
46755;SDS011;32506;52.826;-1.192;2023-07-30T08:25:50;4.53;;;0.95;;
46755;SDS011;32506;52.826;-1.192;2023-07-30T08:28:15;3.22;;;0.90;;
46755;SDS011;32506;52.826;-1.192;2023-07-30T08:30:41;6.05;;;0.70;;
46755;SDS011;32506;52.826;-1.192;2023-07-30T08:33:06;4.88;;;1.00;;
46755;SDS011;32506;52.826;-1.192;2023-07-30T08:35:32;5.30;;;0.65;;
46755;SDS011;32506;52.826;-1.192;2023-07-30T08:37:57;3.35;;;0.70;;
46755;SDS011;32506;52.826;-1.192;2023-07-30T08:40:24;4.20;;;0.70;;
46755;SDS011;32506;52.826;-1.192;2023-07-30T08:42:53;6.07;;;0.90;;
46755;SDS011;32506;52.826;-1.192;2023-07-30T08:45:19;2.55;;;0.68;;
46755;SDS011;32506;52.826;-1.192;2023-07-30T08:47:45;4.25;;;0.70;;
46755;SDS011;32506;52.826;-1.192;2023-07-30T08:50:11;4.80;;;0.60;;
46755;SDS011;32506;52.826;-1.192;2023-07-30T08:52:37;4.68;;;0.55;;
46755;SDS011;32506;52.826;-1.192;2023-07-30T08:55:04;2.45;;;0.43;;
46755;SDS011;32506;52.826;-1.192;2023-07-30T08:57:30;4.82;;;0.80;;
46755;SDS011;32506;52.826;-1.192;2023-07-30T09:00:15;2.83;;;0.70;;
46755;SDS011;32506;52.826;-1.192;2023-07-30T09:02:47;5.78;;;0.60;;
46755;SDS011;32506;52.826;-1.192;2023-07-30T09:05:14;4.55;;;0.77;;
46755;SDS011;32506;52.826;-1.192;2023-07-30T09:07:40;5.20;;;0.68;;
46755;SDS011;32506;52.826;-1.192;2023-07-30T09:10:06;3.90;;;0.75;;
46755;SDS011;32506;52.826;-1.192;2023-07-30T09:12:33;3.92;;;0.50;;
46755;SDS011;32506;52.826;-1.192;2023-07-30T09:14:59;2.45;;;0.70;;
46755;SDS011;32506;52.826;-1.192;2023-07-30T09:17:25;4.40;;;0.52;;
46755;SDS011;32506;52.826;-1.192;2023-07-30T09:19:51;5.85;;;0.70;;
46755;SDS011;32506;52.826;-1.192;2023-07-30T09:22:24;2.70;;;0.50;;
46755;SDS011;32506;52.826;-1.192;2023-07-30T09:24:53;3.15;;;0.52;;
46755;SDS011;32506;52.826;-1.192;2023-07-30T09:27:20;2.83;;;0.60;;
46755;SDS011;32506;52.826;-1.192;2023-07-30T09:30:00;3.67;;;0.63;;
46755;SDS011;32506;52.826;-1.192;2023-07-30T09:32:31;5.65;;;0.80;;
46755;SDS011;32506;52.826;-1.192;2023-07-30T09:35:07;5.25;;;0.65;;
46755;SDS011;32506;52.826;-1.192;2023-07-30T09:37:38;2.40;;;0.50;;
46755;SDS011;32506;52.826;-1.192;2023-07-30T09:40:06;4.35;;;0.70;;
46755;SDS011;32506;52.826;-1.192;2023-07-30T09:42:37;2.97;;;0.57;;
46755;SDS011;32506;52.826;-1.192;2023-07-30T09:45:08;1.45;;;0.38;;
46755;SDS011;32506;52.826;-1.192;2023-07-30T09:47:49;3.60;;;0.88;;
46755;SDS011;32506;52.826;-1.192;2023-07-30T09:50:15;2.63;;;0.50;;
46755;SDS011;32506;52.826;-1.192;2023-07-30T09:52:41;4.18;;;0.47;;
46755;SDS011;32506;52.826;-1.192;2023-07-30T09:55:08;2.47;;;0.52;;
46755;SDS011;32506;52.826;-1.192;2023-07-30T09:57:34;2.10;;;0.75;;
46755;SDS011;32506;52.826;-1.192;2023-07-30T10:00:01;2.28;;;0.35;;
46755;SDS011;32506;52.826;-1.192;2023-07-30T10:02:30;4.40;;;0.35;;
46755;SDS011;32506;52.826;-1.192;2023-07-30T10:04:57;4.00;;;0.75;;
46755;SDS011;32506;52.826;-1.192;2023-07-30T10:07:25;4.95;;;0.60;;
46755;SDS011;32506;52.826;-1.192;2023-07-30T10:09:53;1.75;;;0.50;;
46755;SDS011;32506;52.826;-1.192;2023-07-30T10:12:24;3.65;;;0.70;;
46755;SDS011;32506;52.826;-1.192;2023-07-30T10:14:53;5.35;;;0.80;;
46755;SDS011;32506;52.826;-1.192;2023-07-30T10:17:19;2.30;;;0.45;;
46755;SDS011;32506;52.826;-1.192;2023-07-30T10:19:48;4.40;;;0.47;;
46755;SDS011;32506;52.826;-1.192;2023-07-30T10:24:56;1.75;;;0.40;;
46755;SDS011;32506;52.826;-1.192;2023-07-30T10:27:24;3.70;;;0.73;;
46755;SDS011;32506;52.826;-1.192;2023-07-30T10:30:07;3.08;;;0.40;;
46755;SDS011;32506;52.826;-1.192;2023-07-30T10:32:37;3.83;;;0.73;;
46755;SDS011;32506;52.826;-1.192;2023-07-30T10:35:04;2.92;;;0.60;;
46755;SDS011;32506;52.826;-1.192;2023-07-30T10:37:29;4.10;;;0.68;;
46755;SDS011;32506;52.826;-1.192;2023-07-30T10:39:55;3.20;;;0.40;;
46755;SDS011;32506;52.826;-1.192;2023-07-30T10:42:20;2.97;;;0.60;;
46755;SDS011;32506;52.826;-1.192;2023-07-30T10:44:46;3.47;;;0.43;;
46755;SDS011;32506;52.826;-1.192;2023-07-30T10:47:11;2.85;;;0.60;;
46755;SDS011;32506;52.826;-1.192;2023-07-30T10:49:40;5.15;;;0.60;;
46755;SDS011;32506;52.826;-1.192;2023-07-30T10:52:09;2.88;;;0.57;;
46755;SDS011;32506;52.826;-1.192;2023-07-30T10:54:35;3.15;;;0.52;;
46755;SDS011;32506;52.826;-1.192;2023-07-30T10:57:02;4.55;;;0.70;;
46755;SDS011;32506;52.826;-1.192;2023-07-30T10:59:33;2.17;;;0.50;;
46755;SDS011;32506;52.826;-1.192;2023-07-30T11:02:01;6.80;;;0.75;;
46755;SDS011;32506;52.826;-1.192;2023-07-30T11:04:27;3.10;;;0.50;;
46755;SDS011;32506;52.826;-1.192;2023-07-30T11:06:52;1.77;;;0.45;;
46755;SDS011;32506;52.826;-1.192;2023-07-30T11:09:24;5.70;;;0.57;;
46755;SDS011;32506;52.826;-1.192;2023-07-30T11:11:52;4.63;;;0.95;;
46755;SDS011;32506;52.826;-1.192;2023-07-30T11:14:20;3.67;;;0.70;;
46755;SDS011;32506;52.826;-1.192;2023-07-30T11:16:50;2.42;;;0.60;;
46755;SDS011;32506;52.826;-1.192;2023-07-30T11:19:18;3.67;;;1.05;;
46755;SDS011;32506;52.826;-1.192;2023-07-30T11:21:47;2.15;;;0.50;;
46755;SDS011;32506;52.826;-1.192;2023-07-30T11:24:14;1.88;;;0.43;;
46755;SDS011;32506;52.826;-1.192;2023-07-30T11:26:40;7.35;;;0.45;;
46755;SDS011;32506;52.826;-1.192;2023-07-30T11:29:15;2.15;;;0.50;;
46755;SDS011;32506;52.826;-1.192;2023-07-30T11:31:42;3.33;;;0.57;;
46755;SDS011;32506;52.826;-1.192;2023-07-30T11:34:08;2.53;;;0.43;;
46755;SDS011;32506;52.826;-1.192;2023-07-30T11:36:34;2.45;;;0.40;;
46755;SDS011;32506;52.826;-1.192;2023-07-30T11:39:00;1.33;;;0.40;;
46755;SDS011;32506;52.826;-1.192;2023-07-30T11:41:26;0.88;;;0.40;;
46755;SDS011;32506;52.826;-1.192;2023-07-30T11:43:53;3.75;;;0.50;;
46755;SDS011;32506;52.826;-1.192;2023-07-30T11:46:19;2.53;;;0.50;;
46755;SDS011;32506;52.826;-1.192;2023-07-30T11:48:48;1.95;;;0.50;;
46755;SDS011;32506;52.826;-1.192;2023-07-30T11:51:24;2.63;;;0.40;;
46755;SDS011;32506;52.826;-1.192;2023-07-30T11:53:54;3.30;;;0.73;;
46755;SDS011;32506;52.826;-1.192;2023-07-30T11:56:22;3.40;;;0.50;;
46755;SDS011;32506;52.826;-1.192;2023-07-30T11:58:48;3.63;;;0.63;;
46755;SDS011;32506;52.826;-1.192;2023-07-30T12:01:17;3.22;;;0.80;;
46755;SDS011;32506;52.826;-1.192;2023-07-30T12:03:43;3.17;;;1.15;;
46755;SDS011;32506;52.826;-1.192;2023-07-30T12:06:10;2.80;;;0.70;;
46755;SDS011;32506;52.826;-1.192;2023-07-30T12:08:36;2.17;;;0.57;;
46755;SDS011;32506;52.826;-1.192;2023-07-30T12:11:02;2.00;;;0.40;;
46755;SDS011;32506;52.826;-1.192;2023-07-30T12:13:29;4.05;;;0.60;;
46755;SDS011;32506;52.826;-1.192;2023-07-30T12:15:55;2.33;;;0.57;;
46755;SDS011;32506;52.826;-1.192;2023-07-30T12:18:22;4.57;;;0.60;;
46755;SDS011;32506;52.826;-1.192;2023-07-30T12:20:49;4.85;;;0.75;;
46755;SDS011;32506;52.826;-1.192;2023-07-30T12:23:18;4.40;;;0.80;;
46755;SDS011;32506;52.826;-1.192;2023-07-30T12:25:45;3.67;;;0.70;;
46755;SDS011;32506;52.826;-1.192;2023-07-30T12:28:11;3.35;;;0.95;;
46755;SDS011;32506;52.826;-1.192;2023-07-30T12:30:37;3.25;;;0.70;;
46755;SDS011;32506;52.826;-1.192;2023-07-30T12:33:03;2.85;;;0.70;;
46755;SDS011;32506;52.826;-1.192;2023-07-30T12:35:30;2.45;;;0.45;;
46755;SDS011;32506;52.826;-1.192;2023-07-30T12:37:56;2.50;;;0.85;;
46755;SDS011;32506;52.826;-1.192;2023-07-30T12:40:22;2.83;;;0.80;;
46755;SDS011;32506;52.826;-1.192;2023-07-30T12:42:50;2.90;;;0.68;;
46755;SDS011;32506;52.826;-1.192;2023-07-30T12:45:15;1.23;;;0.50;;
46755;SDS011;32506;52.826;-1.192;2023-07-30T12:47:41;3.33;;;0.63;;
46755;SDS011;32506;52.826;-1.192;2023-07-30T12:50:07;3.33;;;0.88;;
46755;SDS011;32506;52.826;-1.192;2023-07-30T12:52:33;1.45;;;0.55;;
46755;SDS011;32506;52.826;-1.192;2023-07-30T12:54:59;4.18;;;0.90;;
46755;SDS011;32506;52.826;-1.192;2023-07-30T12:57:31;2.90;;;0.70;;
46755;SDS011;32506;52.826;-1.192;2023-07-30T12:59:56;3.05;;;1.08;;
46755;SDS011;32506;52.826;-1.192;2023-07-30T13:02:22;3.55;;;0.88;;
46755;SDS011;32506;52.826;-1.192;2023-07-30T13:04:48;4.07;;;0.68;;
46755;SDS011;32506;52.826;-1.192;2023-07-30T13:07:13;3.50;;;0.75;;
46755;SDS011;32506;52.826;-1.192;2023-07-30T13:09:39;1.77;;;0.47;;
46755;SDS011;32506;52.826;-1.192;2023-07-30T13:12:04;2.42;;;0.60;;
46755;SDS011;32506;52.826;-1.192;2023-07-30T13:14:30;2.78;;;0.80;;
46755;SDS011;32506;52.826;-1.192;2023-07-30T13:16:55;3.33;;;0.75;;
46755;SDS011;32506;52.826;-1.192;2023-07-30T13:19:21;3.70;;;0.90;;
46755;SDS011;32506;52.826;-1.192;2023-07-30T13:21:46;3.30;;;1.00;;
46755;SDS011;32506;52.826;-1.192;2023-07-30T13:24:11;3.45;;;1.30;;
46755;SDS011;32506;52.826;-1.192;2023-07-30T13:26:37;3.90;;;1.40;;
46755;SDS011;32506;52.826;-1.192;2023-07-30T13:29:03;3.95;;;1.17;;
46755;SDS011;32506;52.826;-1.192;2023-07-30T13:31:29;4.85;;;1.65;;
46755;SDS011;32506;52.826;-1.192;2023-07-30T13:33:55;3.65;;;1.00;;
46755;SDS011;32506;52.826;-1.192;2023-07-30T13:36:21;4.97;;;1.65;;
46755;SDS011;32506;52.826;-1.192;2023-07-30T13:38:46;5.13;;;1.27;;
46755;SDS011;32506;52.826;-1.192;2023-07-30T13:41:12;4.28;;;1.20;;
46755;SDS011;32506;52.826;-1.192;2023-07-30T13:43:37;5.43;;;1.40;;
46755;SDS011;32506;52.826;-1.192;2023-07-30T13:46:03;6.25;;;1.02;;
46755;SDS011;32506;52.826;-1.192;2023-07-30T13:48:28;3.47;;;0.93;;
46755;SDS011;32506;52.826;-1.192;2023-07-30T13:50:54;6.47;;;1.13;;
46755;SDS011;32506;52.826;-1.192;2023-07-30T13:53:19;4.55;;;1.05;;
46755;SDS011;32506;52.826;-1.192;2023-07-30T13:55:45;3.97;;;1.10;;
46755;SDS011;32506;52.826;-1.192;2023-07-30T13:58:10;3.63;;;1.13;;
46755;SDS011;32506;52.826;-1.192;2023-07-30T14:00:36;5.82;;;1.55;;
46755;SDS011;32506;52.826;-1.192;2023-07-30T14:03:01;3.58;;;1.00;;
46755;SDS011;32506;52.826;-1.192;2023-07-30T14:05:27;5.72;;;1.52;;
46755;SDS011;32506;52.826;-1.192;2023-07-30T14:07:53;4.18;;;1.52;;
46755;SDS011;32506;52.826;-1.192;2023-07-30T14:10:21;5.65;;;1.70;;
46755;SDS011;32506;52.826;-1.192;2023-07-30T14:12:47;3.38;;;1.30;;
46755;SDS011;32506;52.826;-1.192;2023-07-30T14:15:13;3.17;;;1.20;;
46755;SDS011;32506;52.826;-1.192;2023-07-30T14:17:39;5.05;;;1.10;;
46755;SDS011;32506;52.826;-1.192;2023-07-30T14:20:05;4.07;;;1.70;;
46755;SDS011;32506;52.826;-1.192;2023-07-30T14:22:31;3.88;;;1.20;;
46755;SDS011;32506;52.826;-1.192;2023-07-30T14:24:57;6.10;;;1.90;;
46755;SDS011;32506;52.826;-1.192;2023-07-30T14:27:23;4.10;;;1.42;;
46755;SDS011;32506;52.826;-1.192;2023-07-30T14:29:50;2.92;;;1.45;;